Hollister, Missouri
Current Conditions -  °F | °C
As of 9:46 AM on Friday 24 Oct 2014 (Local Time) from KBBG Reporting Station
Scattered Clouds Scattered Clouds  
Wind Chill: 64°   Ceiling: Unl
Heat Index: 64°   Visibility: 10mi
Dew Point: 61°   Wind: 3mph
Humidity: 88%   Direction: 260°W
Pressure: 30.16"   Gusts: NA
Location:  36.62°N, 93.22°W
Report Text: KBBG 241446Z 26003KT 10SM SCT150 18/16 A3016
Loading
Personal Weather Stations






























Interactive Weather Map
Tropical Storm Tracking
New forecast layout! Learn more

10-Day Weather Forecast

Advertisements
Track Severe Weather on mobile